createdAt,value
2018-05-25T00:00:01.263Z,10.97
2018-05-25T00:02:28.806Z,13.63
2018-05-25T00:04:56.298Z,13.83
2018-05-25T00:07:23.821Z,14.10
2018-05-25T00:09:51.391Z,12.80
2018-05-25T00:12:18.898Z,13.63
2018-05-25T00:14:46.437Z,12.87
2018-05-25T00:17:13.943Z,12.20
2018-05-25T00:19:41.460Z,12.87
2018-05-25T00:22:08.982Z,14.00
2018-05-25T00:24:36.496Z,12.53
2018-05-25T00:27:04.048Z,13.17
2018-05-25T00:29:31.579Z,12.63
2018-05-25T00:31:59.094Z,12.17
2018-05-25T00:34:26.632Z,12.97
2018-05-25T00:36:54.171Z,12.40
2018-05-25T00:39:21.697Z,13.13
2018-05-25T00:41:49.235Z,12.40
2018-05-25T00:44:16.733Z,12.80
2018-05-25T00:46:44.254Z,11.73
2018-05-25T00:49:11.813Z,13.60
2018-05-25T00:51:39.377Z,12.53
2018-05-25T00:54:06.920Z,12.70
2018-05-25T00:56:34.449Z,13.10
2018-05-25T00:59:01.992Z,12.00
2018-05-25T01:01:29.513Z,13.07
2018-05-25T01:03:57.070Z,13.17
2018-05-25T01:06:24.611Z,12.07
2018-05-25T01:08:52.127Z,12.50
2018-05-25T01:11:19.677Z,12.00
2018-05-25T01:13:47.183Z,12.83
2018-05-25T01:16:14.767Z,13.27
2018-05-25T01:18:42.299Z,13.50
2018-05-25T01:21:09.897Z,13.90
2018-05-25T01:23:37.451Z,14.63
2018-05-25T01:26:04.963Z,13.90
2018-05-25T01:28:32.550Z,13.07
2018-05-25T01:31:00.083Z,13.70
2018-05-25T01:33:27.615Z,11.63
2018-05-25T01:35:55.140Z,13.00
2018-05-25T01:38:22.672Z,13.10
2018-05-25T01:40:50.231Z,13.80
2018-05-25T01:43:18.693Z,12.43
2018-05-25T01:45:46.206Z,11.73
2018-05-25T01:48:13.731Z,12.00
2018-05-25T01:50:41.252Z,11.53
2018-05-25T01:53:08.787Z,12.83
2018-05-25T01:55:36.296Z,12.50
2018-05-25T01:58:03.843Z,13.17
2018-05-25T02:00:31.395Z,13.30
2018-05-25T02:02:58.949Z,13.63
2018-05-25T02:05:26.487Z,13.47
2018-05-25T02:07:54.010Z,13.33
2018-05-25T02:10:21.519Z,13.53
2018-05-25T02:12:49.079Z,14.60
2018-05-25T02:15:16.588Z,14.03
2018-05-25T02:17:44.106Z,14.33
2018-05-25T02:20:11.622Z,14.57
2018-05-25T02:22:39.170Z,14.10
2018-05-25T02:25:06.696Z,15.43
2018-05-25T02:27:34.211Z,14.67
2018-05-25T02:30:01.747Z,15.20
2018-05-25T02:32:29.266Z,16.33
2018-05-25T02:34:57.172Z,15.60
2018-05-25T02:37:24.706Z,15.07
2018-05-25T02:39:52.218Z,16.83
2018-05-25T02:42:19.741Z,15.40
2018-05-25T02:44:47.241Z,15.47
2018-05-25T02:47:14.765Z,14.70
2018-05-25T02:49:42.325Z,14.37
2018-05-25T02:52:09.825Z,14.97
2018-05-25T02:54:37.365Z,15.10
2018-05-25T02:57:04.863Z,15.37
2018-05-25T02:59:32.369Z,16.27
2018-05-25T03:01:59.890Z,15.37
2018-05-25T03:04:27.426Z,15.33
2018-05-25T03:06:54.959Z,14.87
2018-05-25T03:09:22.491Z,15.13
2018-05-25T03:11:50.029Z,16.67
2018-05-25T03:14:17.561Z,15.90
2018-05-25T03:16:45.116Z,16.17
2018-05-25T03:19:12.704Z,16.87
2018-05-25T03:21:40.212Z,15.97
2018-05-25T03:24:07.713Z,15.93
2018-05-25T03:26:35.294Z,16.37
2018-05-25T03:29:02.787Z,16.37
2018-05-25T03:31:30.330Z,17.00
2018-05-25T03:33:57.832Z,17.00
2018-05-25T03:36:25.341Z,15.97
2018-05-25T03:38:52.882Z,15.53
2018-05-25T03:41:20.387Z,15.87
2018-05-25T03:43:47.917Z,15.80
2018-05-25T03:46:15.436Z,17.07
2018-05-25T03:48:42.949Z,17.67
2018-05-25T03:51:10.528Z,17.73
2018-05-25T03:53:38.025Z,16.87
2018-05-25T03:56:05.555Z,17.17
2018-05-25T03:58:44.749Z,16.30
2018-05-25T04:01:24.347Z,16.73
2018-05-25T04:03:51.866Z,15.60
2018-05-25T04:06:19.359Z,15.03
2018-05-25T04:08:47.726Z,15.70
2018-05-25T04:11:15.259Z,16.77
2018-05-25T04:13:42.821Z,16.17
2018-05-25T04:16:10.393Z,15.83
2018-05-25T04:18:37.894Z,14.47
2018-05-25T04:21:05.419Z,14.87
2018-05-25T04:23:32.918Z,17.23
2018-05-25T04:26:00.482Z,16.60
2018-05-25T04:28:28.011Z,16.87
2018-05-25T04:30:55.532Z,15.43
2018-05-25T04:33:23.070Z,16.47
2018-05-25T04:35:50.575Z,15.10
2018-05-25T04:38:18.083Z,16.03
2018-05-25T04:40:45.618Z,15.43
2018-05-25T04:43:13.175Z,14.60
2018-05-25T04:45:40.656Z,15.77
2018-05-25T04:48:08.240Z,15.70
2018-05-25T04:50:35.745Z,15.47
2018-05-25T04:53:04.475Z,15.00
2018-05-25T04:55:31.997Z,14.83
2018-05-25T04:57:59.517Z,15.07
2018-05-25T05:00:27.076Z,14.97
2018-05-25T05:02:55.110Z,15.23
2018-05-25T05:05:22.630Z,14.50
2018-05-25T05:07:50.209Z,13.23
2018-05-25T05:10:17.713Z,14.17
2018-05-25T05:12:45.262Z,12.90
2018-05-25T05:15:12.810Z,13.70
2018-05-25T05:17:40.394Z,13.17
2018-05-25T05:20:07.923Z,13.27
2018-05-25T05:22:35.434Z,13.70
2018-05-25T05:25:02.969Z,13.10
2018-05-25T05:27:30.476Z,13.60
2018-05-25T05:29:58.034Z,13.47
2018-05-25T05:32:25.559Z,13.67
2018-05-25T05:34:53.077Z,14.20
2018-05-25T05:37:20.626Z,13.57
2018-05-25T05:39:48.180Z,13.33
2018-05-25T05:42:15.718Z,14.70
2018-05-25T05:44:43.255Z,14.17
2018-05-25T05:47:10.814Z,14.30
2018-05-25T05:49:38.325Z,13.63
2018-05-25T05:52:05.869Z,13.80
2018-05-25T05:54:33.433Z,14.10
2018-05-25T05:57:00.957Z,13.20
2018-05-25T05:59:28.463Z,12.93
2018-05-25T06:01:55.997Z,13.27
2018-05-25T06:04:23.560Z,12.67
2018-05-25T06:06:51.129Z,14.20
2018-05-25T06:09:18.642Z,12.93
2018-05-25T06:11:46.163Z,13.70
2018-05-25T06:14:13.703Z,13.33
2018-05-25T06:16:41.234Z,14.00
2018-05-25T06:19:08.826Z,13.47
2018-05-25T06:21:36.391Z,11.83
2018-05-25T06:24:03.920Z,11.97
2018-05-25T06:26:31.509Z,10.83
2018-05-25T06:28:59.656Z,10.50
2018-05-25T06:31:27.217Z,9.83
2018-05-25T06:33:54.792Z,9.07
2018-05-25T06:36:22.306Z,9.60
2018-05-25T06:38:49.834Z,9.30
2018-05-25T06:41:17.364Z,8.43
2018-05-25T06:43:44.897Z,8.38
2018-05-25T06:46:12.405Z,7.85
2018-05-25T06:48:39.982Z,8.38
2018-05-25T06:51:07.501Z,8.47
2018-05-25T06:53:35.008Z,8.60
2018-05-25T06:56:02.546Z,8.85
2018-05-25T06:58:30.079Z,9.10
2018-05-25T07:00:57.604Z,8.90
2018-05-25T07:03:25.177Z,8.63
2018-05-25T07:05:52.661Z,7.85
2018-05-25T07:08:20.212Z,7.95
2018-05-25T07:10:47.705Z,7.70
2018-05-25T07:13:15.212Z,7.20
2018-05-25T07:15:42.850Z,6.82
2018-05-25T07:18:10.338Z,6.97
2018-05-25T07:20:37.928Z,6.60
2018-05-25T07:23:05.417Z,6.40
2018-05-25T07:25:32.930Z,6.03
2018-05-25T07:28:00.450Z,6.43
2018-05-25T07:30:27.959Z,5.97
2018-05-25T07:32:55.521Z,5.53
2018-05-25T07:35:23.034Z,5.20
2018-05-25T07:37:50.575Z,5.68
2018-05-25T07:40:18.193Z,5.18
2018-05-25T07:42:45.712Z,5.20
2018-05-25T07:45:13.268Z,4.40
2018-05-25T07:47:40.886Z,3.83
2018-05-25T07:50:08.385Z,4.60
2018-05-25T07:52:35.909Z,4.30
2018-05-25T07:55:03.406Z,4.40
2018-05-25T07:57:30.923Z,5.12
2018-05-25T07:59:58.410Z,4.53
2018-05-25T08:02:25.931Z,5.15
2018-05-25T08:04:53.457Z,4.75
2018-05-25T08:07:21.002Z,4.60
2018-05-25T08:09:48.669Z,5.10
2018-05-25T08:12:16.193Z,4.20
2018-05-25T08:14:43.993Z,4.72
2018-05-25T08:17:11.951Z,4.53
2018-05-25T08:19:39.454Z,4.35
2018-05-25T08:22:06.994Z,4.85
2018-05-25T08:24:34.506Z,5.25
2018-05-25T08:29:35.954Z,4.20
2018-05-25T08:32:04.372Z,3.90
2018-05-25T08:34:46.842Z,4.20
2018-05-25T08:37:14.334Z,4.82
2018-05-25T08:39:41.855Z,4.85
2018-05-25T08:42:09.387Z,5.10
2018-05-25T08:44:36.895Z,5.57
2018-05-25T08:47:04.459Z,10.75
2018-05-25T08:49:31.976Z,11.12
2018-05-25T08:51:59.492Z,11.05
2018-05-25T08:54:27.077Z,9.75
2018-05-25T08:56:54.594Z,8.65
2018-05-25T08:59:22.126Z,8.20
2018-05-25T09:01:49.644Z,9.25
2018-05-25T09:04:17.151Z,6.37
2018-05-25T09:06:44.740Z,6.68
2018-05-25T09:09:12.339Z,7.28
2018-05-25T09:11:39.927Z,6.93
2018-05-25T09:14:07.483Z,6.97
2018-05-25T09:16:35.033Z,6.47
2018-05-25T09:19:02.634Z,6.55
2018-05-25T09:21:30.150Z,7.12
2018-05-25T09:23:57.688Z,6.35
2018-05-25T09:26:25.193Z,5.32
2018-05-25T09:28:52.729Z,3.42
2018-05-25T09:31:20.266Z,3.47
2018-05-25T09:33:47.802Z,4.70
2018-05-25T09:36:15.379Z,6.85
2018-05-25T09:38:42.921Z,5.90
2018-05-25T09:41:10.452Z,6.75
2018-05-25T09:43:38.725Z,6.57
2018-05-25T09:46:06.253Z,7.07
2018-05-25T09:48:33.880Z,6.68
2018-05-25T09:51:01.389Z,5.90
2018-05-25T09:53:28.873Z,5.55
2018-05-25T09:55:56.482Z,4.72
2018-05-25T09:58:23.994Z,4.75
2018-05-25T10:00:52.380Z,5.07
2018-05-25T10:03:19.901Z,3.92
2018-05-25T10:05:47.500Z,3.90
2018-05-25T10:08:15.100Z,3.30
2018-05-25T10:10:42.709Z,3.30
2018-05-25T10:13:10.210Z,3.22
2018-05-25T10:15:37.767Z,3.45
2018-05-25T10:18:05.376Z,3.58
2018-05-25T10:20:32.873Z,3.50
2018-05-25T10:23:00.431Z,3.20
2018-05-25T10:25:27.919Z,3.22
2018-05-25T10:27:55.472Z,4.20
2018-05-25T10:30:23.078Z,3.00
2018-05-25T10:32:50.611Z,3.00
2018-05-25T10:35:18.139Z,3.20
2018-05-25T10:37:45.636Z,3.10
2018-05-25T10:40:13.176Z,3.75
2018-05-25T10:42:40.713Z,3.15
2018-05-25T10:45:08.235Z,4.10
2018-05-25T10:47:35.753Z,3.10
2018-05-25T10:50:03.397Z,3.50
2018-05-25T10:52:30.926Z,3.90
2018-05-25T10:54:58.468Z,4.10
2018-05-25T10:57:25.985Z,3.67
2018-05-25T10:59:53.582Z,4.20
2018-05-25T11:02:21.146Z,3.87
2018-05-25T11:04:48.783Z,5.00
2018-05-25T11:07:16.405Z,4.73
2018-05-25T11:09:45.194Z,5.33
2018-05-25T11:12:12.827Z,6.33
2018-05-25T11:14:40.427Z,5.30
2018-05-25T11:17:08.077Z,5.63
2018-05-25T11:19:36.672Z,5.68
2018-05-25T11:22:04.429Z,5.20
2018-05-25T11:24:31.976Z,4.93
2018-05-25T11:26:59.612Z,6.00
2018-05-25T11:29:27.255Z,6.00
2018-05-25T11:31:54.870Z,6.27
2018-05-25T11:34:22.454Z,5.83
2018-05-25T11:36:50.029Z,7.27
2018-05-25T11:39:17.536Z,5.80
2018-05-25T11:41:45.129Z,6.47
2018-05-25T11:44:12.669Z,5.97
2018-05-25T11:46:40.162Z,6.40
2018-05-25T11:49:07.725Z,6.23
2018-05-25T11:51:35.282Z,6.70
2018-05-25T11:54:02.781Z,5.77
2018-05-25T11:56:30.374Z,5.70
2018-05-25T11:58:57.873Z,5.50
2018-05-25T12:01:25.418Z,6.47
2018-05-25T12:03:52.957Z,5.47
2018-05-25T12:06:20.513Z,4.90
2018-05-25T12:08:48.124Z,4.97
2018-05-25T12:11:15.606Z,4.03
2018-05-25T12:13:43.194Z,2.90
2018-05-25T12:16:10.693Z,3.83
2018-05-25T12:18:38.838Z,3.20
2018-05-25T12:21:06.367Z,3.43
2018-05-25T12:23:34.542Z,2.77
2018-05-25T12:26:02.101Z,2.70
2018-05-25T12:28:29.600Z,2.20
2018-05-25T12:30:57.128Z,3.30
2018-05-25T12:33:24.666Z,3.20
2018-05-25T12:35:52.471Z,1.87
2018-05-25T12:38:19.999Z,2.20
2018-05-25T12:40:47.524Z,2.20
2018-05-25T12:43:15.046Z,2.20
2018-05-25T12:45:42.561Z,2.30
2018-05-25T12:48:10.091Z,4.20
2018-05-25T12:50:37.623Z,2.90
2018-05-25T12:53:05.256Z,2.20
2018-05-25T12:55:32.777Z,2.00
2018-05-25T12:58:00.349Z,2.00
2018-05-25T13:00:27.844Z,1.97
2018-05-25T13:02:55.373Z,1.87
2018-05-25T13:05:22.900Z,2.00
2018-05-25T13:07:50.422Z,3.10
2018-05-25T13:10:17.963Z,2.20
2018-05-25T13:12:45.536Z,2.03
2018-05-25T13:15:13.101Z,1.87
2018-05-25T13:17:40.623Z,2.10
2018-05-25T13:20:08.129Z,2.20
2018-05-25T13:22:35.667Z,2.40
2018-05-25T13:25:03.233Z,2.20
2018-05-25T13:27:31.135Z,2.20
2018-05-25T13:29:58.746Z,2.87
2018-05-25T13:32:26.277Z,3.17
2018-05-25T13:34:53.802Z,4.50
2018-05-25T13:37:21.351Z,6.20
2018-05-25T13:39:48.851Z,5.60
2018-05-25T13:42:16.428Z,6.33
2018-05-25T13:44:44.051Z,7.47
2018-05-25T13:47:11.589Z,6.80
2018-05-25T13:49:39.121Z,6.20
2018-05-25T13:52:06.666Z,6.80
2018-05-25T13:54:34.201Z,6.80
2018-05-25T13:57:01.760Z,8.37
2018-05-25T13:59:29.323Z,7.83
2018-05-25T14:01:56.898Z,8.50
2018-05-25T14:04:24.415Z,6.87
2018-05-25T14:06:51.955Z,7.63
2018-05-25T14:09:19.464Z,7.60
2018-05-25T14:11:46.988Z,10.57
2018-05-25T14:14:14.541Z,17.27
2018-05-25T14:16:42.135Z,18.83
2018-05-25T14:19:09.702Z,21.60
2018-05-25T14:21:37.306Z,20.47
2018-05-25T14:24:04.862Z,21.33
2018-05-25T14:26:32.431Z,13.87
2018-05-25T14:28:59.944Z,16.23
2018-05-25T14:31:27.533Z,15.30
2018-05-25T14:33:55.141Z,13.30
2018-05-25T14:36:22.659Z,12.87
2018-05-25T14:38:50.355Z,10.73
2018-05-25T14:41:18.031Z,10.70
2018-05-25T14:43:45.581Z,10.90
2018-05-25T14:46:13.103Z,10.93
2018-05-25T14:48:40.671Z,8.67
2018-05-25T14:51:08.301Z,7.50
2018-05-25T14:53:35.865Z,7.20
2018-05-25T14:56:03.453Z,7.30
2018-05-25T14:58:30.984Z,8.23
2018-05-25T15:00:58.546Z,7.87
2018-05-25T15:03:26.102Z,8.00
2018-05-25T15:05:53.641Z,6.17
2018-05-25T15:08:21.201Z,7.73
2018-05-25T15:10:48.798Z,7.50
2018-05-25T15:13:16.349Z,7.00
2018-05-25T15:15:43.991Z,6.90
2018-05-25T15:18:11.514Z,6.23
2018-05-25T15:20:39.117Z,7.90
2018-05-25T15:23:06.645Z,6.37
2018-05-25T15:25:34.211Z,6.57
2018-05-25T15:28:01.837Z,5.93
2018-05-25T15:30:29.382Z,6.50
2018-05-25T15:32:57.575Z,5.90
2018-05-25T15:35:25.157Z,5.63
2018-05-25T15:37:52.727Z,6.93
2018-05-25T15:40:20.853Z,6.27
2018-05-25T15:42:48.387Z,6.70
2018-05-25T15:45:15.996Z,6.00
2018-05-25T15:47:44.353Z,6.37
2018-05-25T15:50:11.915Z,5.67
2018-05-25T15:52:39.471Z,6.50
2018-05-25T15:55:07.000Z,5.93
2018-05-25T15:57:34.568Z,5.37
2018-05-25T16:00:02.083Z,6.63
2018-05-25T16:02:29.668Z,7.10
2018-05-25T16:04:57.281Z,7.70
2018-05-25T16:07:24.808Z,9.03
2018-05-25T16:09:52.387Z,8.70
2018-05-25T16:12:19.920Z,8.97
2018-05-25T16:14:47.463Z,9.53
2018-05-25T16:17:15.040Z,7.70
2018-05-25T16:19:42.638Z,9.33
2018-05-25T16:22:10.190Z,7.90
2018-05-25T16:24:37.723Z,8.30
2018-05-25T16:27:05.267Z,8.67
2018-05-25T16:29:32.834Z,8.20
2018-05-25T16:32:00.403Z,7.70
2018-05-25T16:34:27.958Z,9.17
2018-05-25T16:36:55.598Z,8.33
2018-05-25T16:39:23.147Z,9.07
2018-05-25T16:41:50.710Z,7.93
2018-05-25T16:44:18.246Z,8.00
2018-05-25T16:46:45.829Z,9.00
2018-05-25T16:49:13.398Z,7.50
2018-05-25T16:51:40.998Z,7.37
2018-05-25T16:54:08.537Z,8.07
2018-05-25T16:56:36.103Z,8.07
2018-05-25T16:59:03.686Z,7.20
2018-05-25T17:01:31.309Z,7.23
2018-05-25T17:03:58.911Z,7.87
2018-05-25T17:06:30.091Z,7.67
2018-05-25T17:08:57.813Z,7.60
2018-05-25T17:11:25.423Z,8.47
2018-05-25T17:13:52.993Z,7.63
2018-05-25T17:16:20.525Z,7.30
2018-05-25T17:18:48.129Z,7.67
2018-05-25T17:21:15.651Z,7.60
2018-05-25T17:23:43.247Z,7.23
2018-05-25T17:26:12.905Z,7.90
2018-05-25T17:28:40.494Z,7.47
2018-05-25T17:31:08.072Z,7.50
2018-05-25T17:33:35.658Z,8.27
2018-05-25T17:36:03.290Z,7.20
2018-05-25T17:38:30.863Z,7.40
2018-05-25T17:40:58.495Z,7.00
2018-05-25T17:43:26.135Z,7.43
2018-05-25T17:45:53.746Z,7.53
2018-05-25T17:48:22.268Z,8.03
2018-05-25T17:50:49.814Z,8.40
2018-05-25T17:53:17.459Z,7.97
2018-05-25T17:55:45.016Z,8.47
2018-05-25T17:58:12.591Z,8.07
2018-05-25T18:00:40.174Z,9.23
2018-05-25T18:03:09.735Z,9.30
2018-05-25T18:05:37.314Z,8.50
2018-05-25T18:08:04.914Z,8.63
2018-05-25T18:10:32.462Z,8.17
2018-05-25T18:13:00.326Z,8.00
2018-05-25T18:15:27.915Z,7.77
2018-05-25T18:17:55.542Z,8.37
2018-05-25T18:20:23.208Z,8.27
2018-05-25T18:22:50.795Z,8.43
2018-05-25T18:25:18.350Z,7.80
2018-05-25T18:27:45.942Z,8.23
2018-05-25T18:30:13.463Z,7.07
2018-05-25T18:32:41.008Z,7.03
2018-05-25T18:37:43.376Z,7.07
2018-05-25T18:40:10.920Z,6.80
2018-05-25T18:42:38.484Z,7.50
2018-05-25T18:45:06.105Z,7.57
2018-05-25T18:47:34.380Z,7.97
2018-05-25T18:50:01.954Z,8.60
2018-05-25T18:52:29.523Z,8.70
2018-05-25T18:54:57.105Z,8.80
2018-05-25T18:57:24.719Z,9.47
2018-05-25T18:59:52.257Z,9.23
2018-05-25T19:02:19.812Z,9.23
2018-05-25T19:04:47.416Z,8.63
2018-05-25T19:07:14.935Z,10.77
2018-05-25T19:09:42.520Z,11.33
2018-05-25T19:12:10.052Z,12.67
2018-05-25T19:14:37.845Z,13.03
2018-05-25T19:17:05.468Z,12.90
2018-05-25T19:19:33.080Z,13.37
2018-05-25T19:22:00.680Z,15.27
2018-05-25T19:24:28.657Z,16.07
2018-05-25T19:26:56.387Z,15.73
2018-05-25T19:29:24.025Z,15.77
2018-05-25T19:31:51.646Z,13.73
2018-05-25T19:34:19.378Z,15.70
2018-05-25T19:36:46.942Z,14.83
2018-05-25T19:39:14.465Z,13.77
2018-05-25T19:41:42.020Z,15.50
2018-05-25T19:44:09.681Z,15.70
2018-05-25T19:46:37.234Z,15.50
2018-05-25T19:49:04.797Z,16.40
2018-05-25T19:51:32.326Z,16.10
2018-05-25T19:53:59.885Z,15.57
2018-05-25T19:56:27.429Z,13.87
2018-05-25T19:58:54.987Z,13.90
2018-05-25T20:01:22.510Z,13.87
2018-05-25T20:03:50.042Z,13.07
2018-05-25T20:06:17.600Z,12.60
2018-05-25T20:08:45.130Z,13.90
2018-05-25T20:11:12.697Z,12.07
2018-05-25T20:13:40.294Z,13.93
2018-05-25T20:16:07.854Z,12.77
2018-05-25T20:18:35.403Z,12.87
2018-05-25T20:21:03.030Z,13.57
2018-05-25T20:23:30.601Z,12.67
2018-05-25T20:25:58.209Z,13.20
2018-05-25T20:28:25.745Z,12.30
2018-05-25T20:30:53.334Z,11.97
2018-05-25T20:33:20.926Z,13.57
2018-05-25T20:35:48.537Z,13.13
2018-05-25T20:38:16.081Z,12.97
2018-05-25T20:40:43.681Z,13.63
2018-05-25T20:43:11.362Z,13.70
2018-05-25T20:45:38.906Z,13.40
2018-05-25T20:48:06.455Z,13.90
2018-05-25T20:50:33.999Z,13.00
2018-05-25T20:53:01.529Z,13.60
2018-05-25T20:55:29.070Z,13.13
2018-05-25T20:57:56.607Z,13.73
2018-05-25T21:00:24.181Z,13.97
2018-05-25T21:02:51.701Z,12.83
2018-05-25T21:05:19.225Z,12.37
2018-05-25T21:07:46.807Z,12.47
2018-05-25T21:10:14.387Z,13.37
2018-05-25T21:12:41.967Z,13.50
2018-05-25T21:15:09.565Z,12.93
2018-05-25T21:17:37.094Z,13.03
2018-05-25T21:20:04.679Z,13.93
2018-05-25T21:22:32.230Z,13.50
2018-05-25T21:24:59.785Z,13.07
2018-05-25T21:27:27.318Z,12.83
2018-05-25T21:29:54.908Z,14.53
2018-05-25T21:32:22.487Z,11.73
2018-05-25T21:34:50.026Z,12.67
2018-05-25T21:37:17.653Z,12.73
2018-05-25T21:39:45.180Z,13.37
2018-05-25T21:42:12.707Z,13.67
2018-05-25T21:44:40.257Z,13.83
2018-05-25T21:47:07.829Z,13.10
2018-05-25T21:49:35.431Z,12.30
2018-05-25T21:52:02.993Z,13.43
2018-05-25T21:54:30.533Z,13.80
2018-05-25T21:56:58.102Z,13.13
2018-05-25T21:59:25.628Z,14.27
2018-05-25T22:01:53.234Z,14.17
2018-05-25T22:04:20.788Z,14.20
2018-05-25T22:06:48.321Z,13.73
2018-05-25T22:09:15.893Z,13.70
2018-05-25T22:11:43.538Z,14.33
2018-05-25T22:14:11.088Z,15.50
2018-05-25T22:16:38.641Z,15.37
2018-05-25T22:19:06.235Z,17.23
2018-05-25T22:21:33.774Z,17.40
2018-05-25T22:24:01.368Z,15.97
2018-05-25T22:26:28.936Z,16.03
2018-05-25T22:28:56.499Z,16.10
2018-05-25T22:31:24.026Z,15.83
2018-05-25T22:33:51.583Z,14.37
2018-05-25T22:36:19.131Z,13.03
2018-05-25T22:38:46.731Z,12.87
2018-05-25T22:41:14.262Z,13.80
2018-05-25T22:43:53.554Z,13.37
2018-05-25T22:46:32.898Z,13.40
2018-05-25T22:49:12.272Z,13.00
2018-05-25T22:51:51.682Z,12.67
2018-05-25T22:54:34.525Z,13.47
2018-05-25T22:57:02.056Z,12.87
2018-05-25T22:59:29.601Z,12.37
2018-05-25T23:01:57.196Z,13.13
2018-05-25T23:04:24.729Z,13.97
2018-05-25T23:06:52.298Z,13.40
2018-05-25T23:09:19.901Z,14.10
2018-05-25T23:11:47.456Z,13.93
2018-05-25T23:14:15.013Z,13.37
2018-05-25T23:16:42.579Z,13.23
2018-05-25T23:19:10.166Z,14.47
2018-05-25T23:21:37.724Z,14.37
2018-05-25T23:24:05.307Z,14.60
2018-05-25T23:26:32.843Z,14.67
2018-05-25T23:29:00.394Z,15.03
2018-05-25T23:31:27.924Z,15.63
2018-05-25T23:33:55.535Z,14.93
2018-05-25T23:36:23.062Z,15.97
2018-05-25T23:38:50.613Z,15.87
2018-05-25T23:41:18.218Z,15.57
2018-05-25T23:43:45.859Z,16.03
2018-05-25T23:46:13.468Z,16.30
2018-05-25T23:48:41.006Z,18.00
2018-05-25T23:51:08.540Z,16.83
2018-05-25T23:53:36.090Z,17.07
2018-05-25T23:56:03.630Z,17.23
2018-05-25T23:58:31.199Z,17.67
